sensor_id;sensor_type;location;lat;lon;timestamp;pressure;altitude;pressure_sealevel;temperature;humidity
53940;BME280;39850;43.324;21.916;2023-07-13T00:04:09;992.0;;;22.8;75.0
53940;BME280;39850;43.324;21.916;2023-07-13T00:08:46;992.0;;;22.8;75.0
53940;BME280;39850;43.324;21.916;2023-07-13T00:13:23;992.0;;;22.8;74.0
53940;BME280;39850;43.324;21.916;2023-07-13T00:18:00;992.0;;;22.8;74.0
53940;BME280;39850;43.324;21.916;2023-07-13T00:22:37;992.0;;;22.8;74.0
53940;BME280;39850;43.324;21.916;2023-07-13T00:27:15;992.0;;;22.8;74.0
53940;BME280;39850;43.324;21.916;2023-07-13T01:00:57;992.0;;;22.8;76.0
53940;BME280;39850;43.324;21.916;2023-07-13T01:05:37;992.0;;;22.8;76.0
53940;BME280;39850;43.324;21.916;2023-07-13T01:10:22;992.0;;;22.8;76.0
53940;BME280;39850;43.324;21.916;2023-07-13T01:15:36;992.0;;;22.8;76.0
53940;BME280;39850;43.324;21.916;2023-07-13T01:20:13;992.0;;;22.8;76.0
53940;BME280;39850;43.324;21.916;2023-07-13T01:24:51;992.0;;;22.8;76.0
53940;BME280;39850;43.324;21.916;2023-07-13T01:29:28;992.0;;;22.8;76.0
53940;BME280;39850;43.324;21.916;2023-07-13T01:34:05;992.0;;;22.6;76.0
53940;BME280;39850;43.324;21.916;2023-07-13T01:38:42;992.0;;;22.6;76.0
53940;BME280;39850;43.324;21.916;2023-07-13T01:43:20;992.0;;;22.4;76.0
53940;BME280;39850;43.324;21.916;2023-07-13T01:47:57;992.0;;;22.4;76.0
53940;BME280;39850;43.324;21.916;2023-07-13T02:20:16;992.0;;;21.7;78.0
53940;BME280;39850;43.324;21.916;2023-07-13T02:24:53;992.0;;;21.7;78.0
53940;BME280;39850;43.324;21.916;2023-07-13T02:29:30;992.0;;;21.7;78.0
53940;BME280;39850;43.324;21.916;2023-07-13T02:34:07;992.0;;;21.7;79.0
53940;BME280;39850;43.324;21.916;2023-07-13T02:38:44;992.0;;;21.7;79.0
53940;BME280;39850;43.324;21.916;2023-07-13T02:43:22;992.0;;;21.7;79.0
53940;BME280;39850;43.324;21.916;2023-07-13T02:47:58;992.0;;;21.7;79.0
53940;BME280;39850;43.324;21.916;2023-07-13T02:52:35;992.0;;;21.8;79.0
53940;BME280;39850;43.324;21.916;2023-07-13T02:57:12;992.0;;;21.8;79.0
53940;BME280;39850;43.324;21.916;2023-07-13T03:01:48;992.0;;;21.8;79.0
53940;BME280;39850;43.324;21.916;2023-07-13T03:06:25;992.0;;;21.8;79.0
53940;BME280;39850;43.324;21.916;2023-07-13T03:43:37;992.0;;;20.8;79.0
53940;BME280;39850;43.324;21.916;2023-07-13T03:48:15;992.0;;;20.8;79.0
53940;BME280;39850;43.324;21.916;2023-07-13T03:52:52;992.0;;;20.9;78.0
53940;BME280;39850;43.324;21.916;2023-07-13T03:57:29;992.0;;;20.9;78.0
53940;BME280;39850;43.324;21.916;2023-07-13T04:02:07;992.0;;;21.0;78.0
53940;BME280;39850;43.324;21.916;2023-07-13T04:06:44;992.0;;;21.0;78.0
53940;BME280;39850;43.324;21.916;2023-07-13T04:11:32;992.0;;;21.4;78.0
53940;BME280;39850;43.324;21.916;2023-07-13T04:16:09;992.0;;;21.4;78.0
53940;BME280;39850;43.324;21.916;2023-07-13T04:20:51;992.0;;;21.8;78.0
53940;BME280;39850;43.324;21.916;2023-07-13T04:25:28;992.0;;;21.8;78.0
53940;BME280;39850;43.324;21.916;2023-07-13T04:30:10;992.0;;;21.8;78.0
53940;BME280;39850;43.324;21.916;2023-07-13T05:02:28;992.0;;;23.8;69.0
53940;BME280;39850;43.324;21.916;2023-07-13T05:07:06;992.0;;;23.8;69.0
53940;BME280;39850;43.324;21.916;2023-07-13T05:11:44;992.0;;;24.2;67.0
53940;BME280;39850;43.324;21.916;2023-07-13T05:16:20;992.0;;;24.2;67.0
53940;BME280;39850;43.324;21.916;2023-07-13T05:21:06;992.0;;;24.5;66.0
53940;BME280;39850;43.324;21.916;2023-07-13T05:25:43;992.0;;;24.5;66.0
53940;BME280;39850;43.324;21.916;2023-07-13T05:30:19;992.0;;;24.5;66.0
53940;BME280;39850;43.324;21.916;2023-07-13T05:34:56;992.0;;;24.8;65.0
53940;BME280;39850;43.324;21.916;2023-07-13T05:39:32;992.0;;;24.8;65.0
53940;BME280;39850;43.324;21.916;2023-07-13T05:44:09;992.0;;;25.0;64.0
53940;BME280;39850;43.324;21.916;2023-07-13T05:48:45;992.0;;;25.0;64.0
53940;BME280;39850;43.324;21.916;2023-07-13T06:21:22;992.0;;;28.3;54.0
53940;BME280;39850;43.324;21.916;2023-07-13T06:25:59;992.0;;;28.3;54.0
53940;BME280;39850;43.324;21.916;2023-07-13T06:30:39;992.0;;;28.3;54.0
53940;BME280;39850;43.324;21.916;2023-07-13T06:35:17;992.0;;;28.7;54.0
53940;BME280;39850;43.324;21.916;2023-07-13T06:39:53;992.0;;;28.7;54.0
53940;BME280;39850;43.324;21.916;2023-07-13T06:44:30;992.0;;;29.1;54.0
53940;BME280;39850;43.324;21.916;2023-07-13T06:49:10;992.0;;;29.1;54.0
53940;BME280;39850;43.324;21.916;2023-07-13T06:53:47;992.0;;;29.1;53.0
53940;BME280;39850;43.324;21.916;2023-07-13T06:58:25;992.0;;;29.1;53.0
53940;BME280;39850;43.324;21.916;2023-07-13T07:03:02;992.0;;;29.1;53.0
53940;BME280;39850;43.324;21.916;2023-07-13T07:07:39;992.0;;;29.1;53.0
53940;BME280;39850;43.324;21.916;2023-07-13T07:44:34;992.0;;;31.5;44.0
53940;BME280;39850;43.324;21.916;2023-07-13T07:49:10;992.0;;;31.5;44.0
53940;BME280;39850;43.324;21.916;2023-07-13T07:53:48;992.0;;;31.6;43.0
53940;BME280;39850;43.324;21.916;2023-07-13T07:58:25;992.0;;;31.6;43.0
53940;BME280;39850;43.324;21.916;2023-07-13T08:03:03;992.0;;;31.7;43.0
53940;BME280;39850;43.324;21.916;2023-07-13T08:07:40;992.0;;;31.7;43.0
53940;BME280;39850;43.324;21.916;2023-07-13T08:12:17;992.0;;;32.2;42.0
53940;BME280;39850;43.324;21.916;2023-07-13T08:16:53;992.0;;;32.2;42.0
53940;BME280;39850;43.324;21.916;2023-07-13T08:21:30;992.0;;;32.6;43.0
53940;BME280;39850;43.324;21.916;2023-07-13T08:26:09;992.0;;;32.6;43.0
53940;BME280;39850;43.324;21.916;2023-07-13T08:30:46;992.0;;;32.6;43.0
53940;BME280;39850;43.324;21.916;2023-07-13T09:04:44;992.0;;;32.6;41.0
53940;BME280;39850;43.324;21.916;2023-07-13T09:10:27;992.0;;;32.6;41.0
53940;BME280;39850;43.324;21.916;2023-07-13T09:15:40;992.0;;;32.7;41.0
53940;BME280;39850;43.324;21.916;2023-07-13T09:20:52;992.0;;;32.7;41.0
53940;BME280;39850;43.324;21.916;2023-07-13T09:25:48;992.0;;;32.7;41.0
53940;BME280;39850;43.324;21.916;2023-07-13T09:31:04;992.0;;;32.7;41.0
53940;BME280;39850;43.324;21.916;2023-07-13T09:35:43;992.0;;;32.7;40.0
53940;BME280;39850;43.324;21.916;2023-07-13T09:41:11;992.0;;;32.7;40.0
53940;BME280;39850;43.324;21.916;2023-07-13T09:45:53;992.0;;;32.7;41.0
53940;BME280;39850;43.324;21.916;2023-07-13T09:50:30;992.0;;;32.7;41.0
53940;BME280;39850;43.324;21.916;2023-07-13T10:24:26;991.0;;;32.6;32.0
53940;BME280;39850;43.324;21.916;2023-07-13T10:29:17;991.0;;;32.6;32.0
53940;BME280;39850;43.324;21.916;2023-07-13T10:33:56;991.0;;;32.7;33.0
53940;BME280;39850;43.324;21.916;2023-07-13T10:38:34;991.0;;;32.7;33.0
53940;BME280;39850;43.324;21.916;2023-07-13T10:43:39;991.0;;;32.7;33.0
53940;BME280;39850;43.324;21.916;2023-07-13T10:48:24;991.0;;;32.7;33.0
53940;BME280;39850;43.324;21.916;2023-07-13T10:53:30;991.0;;;32.8;33.0
53940;BME280;39850;43.324;21.916;2023-07-13T10:58:32;991.0;;;32.8;33.0
53940;BME280;39850;43.324;21.916;2023-07-13T11:03:23;991.0;;;32.8;33.0
53940;BME280;39850;43.324;21.916;2023-07-13T11:08:35;991.0;;;32.8;33.0
53940;BME280;39850;43.324;21.916;2023-07-13T11:42:39;990.0;;;32.2;33.0
53940;BME280;39850;43.324;21.916;2023-07-13T11:47:23;990.0;;;32.2;33.0
53940;BME280;39850;43.324;21.916;2023-07-13T11:52:04;990.0;;;32.5;33.0
53940;BME280;39850;43.324;21.916;2023-07-13T11:56:42;990.0;;;32.5;33.0
53940;BME280;39850;43.324;21.916;2023-07-13T12:01:34;990.0;;;32.5;33.0
53940;BME280;39850;43.324;21.916;2023-07-13T12:06:35;990.0;;;32.8;33.0
53940;BME280;39850;43.324;21.916;2023-07-13T12:11:19;990.0;;;32.8;33.0
53940;BME280;39850;43.324;21.916;2023-07-13T12:15:58;990.0;;;32.8;33.0
53940;BME280;39850;43.324;21.916;2023-07-13T12:20:40;990.0;;;32.8;33.0
53940;BME280;39850;43.324;21.916;2023-07-13T12:25:28;990.0;;;32.8;33.0
53940;BME280;39850;43.324;21.916;2023-07-13T12:30:33;990.0;;;32.8;33.0
53940;BME280;39850;43.324;21.916;2023-07-13T13:03:53;989.0;;;32.2;35.0
53940;BME280;39850;43.324;21.916;2023-07-13T13:08:36;989.0;;;32.2;35.0
53940;BME280;39850;43.324;21.916;2023-07-13T13:13:12;989.0;;;32.0;35.0
53940;BME280;39850;43.324;21.916;2023-07-13T13:17:49;989.0;;;32.0;35.0
53940;BME280;39850;43.324;21.916;2023-07-13T13:22:25;989.0;;;31.7;35.0
53940;BME280;39850;43.324;21.916;2023-07-13T13:27:04;989.0;;;31.7;35.0
53940;BME280;39850;43.324;21.916;2023-07-13T13:31:43;989.0;;;31.7;35.0
53940;BME280;39850;43.324;21.916;2023-07-13T13:36:23;989.0;;;31.7;35.0
53940;BME280;39850;43.324;21.916;2023-07-13T13:41:00;989.0;;;31.7;35.0
53940;BME280;39850;43.324;21.916;2023-07-13T13:45:36;989.0;;;31.7;36.0
53940;BME280;39850;43.324;21.916;2023-07-13T13:50:22;989.0;;;31.7;36.0
53940;BME280;39850;43.324;21.916;2023-07-13T14:23:05;989.0;;;32.5;36.0
53940;BME280;39850;43.324;21.916;2023-07-13T14:28:17;989.0;;;32.5;36.0
53940;BME280;39850;43.324;21.916;2023-07-13T14:32:55;989.0;;;32.6;36.0
53940;BME280;39850;43.324;21.916;2023-07-13T14:37:34;989.0;;;32.6;36.0
53940;BME280;39850;43.324;21.916;2023-07-13T14:42:12;989.0;;;32.6;36.0
53940;BME280;39850;43.324;21.916;2023-07-13T14:46:53;989.0;;;32.6;37.0
53940;BME280;39850;43.324;21.916;2023-07-13T14:51:34;989.0;;;32.6;37.0
53940;BME280;39850;43.324;21.916;2023-07-13T14:56:13;989.0;;;32.7;37.0
53940;BME280;39850;43.324;21.916;2023-07-13T15:00:50;989.0;;;32.7;37.0
53940;BME280;39850;43.324;21.916;2023-07-13T15:05:33;989.0;;;32.6;37.0
53940;BME280;39850;43.324;21.916;2023-07-13T15:10:28;989.0;;;32.6;37.0
53940;BME280;39850;43.324;21.916;2023-07-13T15:43:00;989.0;;;31.7;40.0
53940;BME280;39850;43.324;21.916;2023-07-13T15:47:37;989.0;;;31.7;40.0
53940;BME280;39850;43.324;21.916;2023-07-13T15:52:24;989.0;;;31.7;40.0
53940;BME280;39850;43.324;21.916;2023-07-13T15:57:04;988.0;;;31.7;40.0
53940;BME280;39850;43.324;21.916;2023-07-13T16:01:46;988.0;;;31.7;40.0
53940;BME280;39850;43.324;21.916;2023-07-13T16:06:36;988.0;;;31.7;40.0
53940;BME280;39850;43.324;21.916;2023-07-13T16:11:28;988.0;;;31.7;40.0
53940;BME280;39850;43.324;21.916;2023-07-13T16:16:13;988.0;;;31.7;40.0
53940;BME280;39850;43.324;21.916;2023-07-13T16:20:50;988.0;;;31.7;40.0
53940;BME280;39850;43.324;21.916;2023-07-13T16:25:27;988.0;;;31.7;40.0
53940;BME280;39850;43.324;21.916;2023-07-13T16:30:22;988.0;;;31.7;40.0
53940;BME280;39850;43.324;21.916;2023-07-13T17:07:27;988.0;;;31.0;46.0
53940;BME280;39850;43.324;21.916;2023-07-13T17:12:08;988.0;;;31.0;46.0
53940;BME280;39850;43.324;21.916;2023-07-13T17:16:56;988.0;;;30.9;46.0
53940;BME280;39850;43.324;21.916;2023-07-13T17:21:33;988.0;;;30.9;46.0
53940;BME280;39850;43.324;21.916;2023-07-13T17:26:10;988.0;;;30.9;46.0
53940;BME280;39850;43.324;21.916;2023-07-13T17:31:00;988.0;;;30.9;46.0
53940;BME280;39850;43.324;21.916;2023-07-13T17:35:38;988.0;;;30.8;46.0
53940;BME280;39850;43.324;21.916;2023-07-13T17:40:17;988.0;;;30.8;46.0
53940;BME280;39850;43.324;21.916;2023-07-13T17:44:54;988.0;;;30.9;45.0
53940;BME280;39850;43.324;21.916;2023-07-13T17:49:32;988.0;;;30.9;45.0
53940;BME280;39850;43.324;21.916;2023-07-13T18:27:06;989.0;;;29.0;54.0
53940;BME280;39850;43.324;21.916;2023-07-13T18:31:44;989.0;;;29.0;54.0
53940;BME280;39850;43.324;21.916;2023-07-13T18:36:23;989.0;;;29.0;54.0
53940;BME280;39850;43.324;21.916;2023-07-13T18:41:00;989.0;;;29.0;54.0
53940;BME280;39850;43.324;21.916;2023-07-13T18:45:36;989.0;;;29.0;54.0
53940;BME280;39850;43.324;21.916;2023-07-13T18:50:29;989.0;;;29.0;54.0
53940;BME280;39850;43.324;21.916;2023-07-13T18:55:21;989.0;;;29.0;54.0
53940;BME280;39850;43.324;21.916;2023-07-13T18:59:58;989.0;;;29.0;54.0
53940;BME280;39850;43.324;21.916;2023-07-13T19:04:34;989.0;;;28.9;54.0
53940;BME280;39850;43.324;21.916;2023-07-13T19:09:12;989.0;;;28.9;54.0
53940;BME280;39850;43.324;21.916;2023-07-13T19:56:31;990.0;;;27.1;50.0
53940;BME280;39850;43.324;21.916;2023-07-13T20:01:08;990.0;;;27.1;50.0
53940;BME280;39850;43.324;21.916;2023-07-13T20:05:45;990.0;;;27.1;50.0
53940;BME280;39850;43.324;21.916;2023-07-13T20:10:31;990.0;;;27.1;50.0
53940;BME280;39850;43.324;21.916;2023-07-13T20:15:24;990.0;;;27.1;50.0
53940;BME280;39850;43.324;21.916;2023-07-13T20:20:36;990.0;;;27.1;50.0
53940;BME280;39850;43.324;21.916;2023-07-13T20:25:29;990.0;;;27.1;50.0
53940;BME280;39850;43.324;21.916;2023-07-13T20:30:12;990.0;;;27.1;50.0
53940;BME280;39850;43.324;21.916;2023-07-13T21:07:23;990.0;;;26.3;50.0
53940;BME280;39850;43.324;21.916;2023-07-13T21:11:59;990.0;;;26.3;50.0
53940;BME280;39850;43.324;21.916;2023-07-13T21:16:36;990.0;;;26.4;51.0
53940;BME280;39850;43.324;21.916;2023-07-13T21:21:25;990.0;;;26.4;51.0
53940;BME280;39850;43.324;21.916;2023-07-13T21:26:08;990.0;;;26.5;52.0
53940;BME280;39850;43.324;21.916;2023-07-13T21:30:46;990.0;;;26.5;52.0
53940;BME280;39850;43.324;21.916;2023-07-13T21:35:40;990.0;;;26.5;54.0
53940;BME280;39850;43.324;21.916;2023-07-13T21:40:27;990.0;;;26.5;54.0
53940;BME280;39850;43.324;21.916;2023-07-13T21:45:27;989.0;;;26.5;56.0
53940;BME280;39850;43.324;21.916;2023-07-13T21:50:08;989.0;;;26.5;56.0
53940;BME280;39850;43.324;21.916;2023-07-13T22:36:51;989.0;;;25.9;55.0
53940;BME280;39850;43.324;21.916;2023-07-13T22:41:28;989.0;;;25.9;55.0
53940;BME280;39850;43.324;21.916;2023-07-13T22:46:21;989.0;;;25.6;55.0
53940;BME280;39850;43.324;21.916;2023-07-13T22:50:59;989.0;;;25.6;55.0
53940;BME280;39850;43.324;21.916;2023-07-13T22:55:37;989.0;;;25.6;55.0
53940;BME280;39850;43.324;21.916;2023-07-13T23:00:20;989.0;;;25.6;55.0
53940;BME280;39850;43.324;21.916;2023-07-13T23:04:57;989.0;;;25.4;55.0
53940;BME280;39850;43.324;21.916;2023-07-13T23:09:34;989.0;;;25.4;55.0
53940;BME280;39850;43.324;21.916;2023-07-13T23:46:51;989.0;;;25.5;61.0
53940;BME280;39850;43.324;21.916;2023-07-13T23:51:30;989.0;;;25.5;61.0
53940;BME280;39850;43.324;21.916;2023-07-13T23:56:24;990.0;;;25.2;61.0
